Detalii statie UNIC PROD [00001D09]

Toti senzorii

Date Temperatura solului [C]Precipitatii [mm]Voltaj baterie [mV]Leaf Wetness [Min]HC Air temperature [C]HC Relative humidity [%]Punctul de roua [C]
medieminmaxsumaultimatimpmedieminmaxmediemediemin
2019-10-19 23:00:00 0 6884 9.32 9.03 9.62 100 9.2 9
2019-10-20 00:00:00 0 6884 9.7 9.15 10.24 100 9.6 9.1
2019-10-20 01:00:00 0 6874 8.82 8.43 9.37 100 8.7 8.4
2019-10-20 02:00:00 0 6874 8.51 7.22 9.69 100 8.4 7.2
2019-10-20 03:00:00 0 6854 7.76 7 8.73 100 7.7 7
2019-10-20 04:00:00 0 6834 7.09 5.78 9.02 100 7 5.7
2019-10-20 05:00:00 0 6826 7.51 7.22 7.79 100 7.4 7.2
2019-10-20 06:00:00 0 6826 6.69 5.87 7.35 100 6.6 5.8
2019-10-20 07:00:00 0 6816 5.66 5.43 6.1 100 5.6 5.4
2019-10-20 08:00:00 0 6796 6.81 6.2 7.32 100 6.7 6.2
2019-10-20 09:00:00 0 6874 8.69 7.42 10.21 100 8.6 7.4
2019-10-20 10:00:00 0 7080 10.74 10.31 11.45 100 10.7 10.3
2019-10-20 11:00:00 0 7196 13.04 11.98 14.18 100 13 11.9
2019-10-20 12:00:00 0 7196 15.37 13.92 16.51 100 15.3 13.9
2019-10-20 13:00:00 0 7236 18.35 16.76 20.44 95.63 17.5 16.6
2019-10-20 14:00:00 0 7236 22.17 20.45 24.06 68.11 15.8 15.2
2019-10-20 15:00:00 0 7236 24.61 23.78 25.27 56.02 15 14.8
2019-10-20 16:00:00 0 7216 25.55 25.26 25.74 50.99 14.4 14
2019-10-20 17:00:00 0 7050 25.17 24.52 25.48 50.14 13.8 13.4
2019-10-20 18:00:00 0 6932 23.09 21.64 24.36 57.08 13.9 13.6
2019-10-20 19:00:00 0 6922 19.34 18.52 21.19 73.22 14.2 14
2019-10-20 20:00:00 0 6904 16.93 15.34 18.45 84.63 14.1 13.3
2019-10-20 21:00:00 0 6904 14.3 13.32 15.13 91.15 12.7 11.9
2019-10-20 22:00:00 0 6904 12.33 11.93 13.06 94.29 11.3 11
2019-10-20 23:00:00 0 6894 11.61 11.27 12.07 94.22 10.5 10
2019-10-21 00:00:00 0 6874 11.04 9.86 11.91 96.3 10.3 9.5
2019-10-21 01:00:00 0 6864 10.58 9.75 11.31 99.93 10.5 9.7
2019-10-21 02:00:00 0 6854 10.21 9.63 11.1 100 10.1 9.6
2019-10-21 03:00:00 0 6854 9.3 8.63 9.79 100 9.2 8.6
2019-10-21 04:00:00 0 6844 9.22 8.73 9.65 100 9.1 8.7
2019-10-21 05:00:00 0 6826 8.67 7.95 9.18 100 8.6 7.9
2019-10-21 06:00:00 0 6816 7.43 5.87 8.37 100 7.3 5.8
2019-10-21 07:00:00 0 6806 6.03 5.69 6.68 100 5.9 5.6
2019-10-21 08:00:00 0 6806 5.98 5.53 6.55 100 5.9 5.5
2019-10-21 09:00:00 0 6932 7.6 6.07 9.15 100 7.5 6
2019-10-21 10:00:00 0 7176 11.09 9.36 12.68 100 11 9.3
2019-10-21 11:00:00 0 7148 13.79 12.82 15.16 100 13.7 12.8
2019-10-21 12:00:00 0 7206 17.35 15.19 19.18 86.01 14.7 13.3
2019-10-21 13:00:00 0 7236 21.05 19.53 22.64 58.98 12.5 12.1
2019-10-21 14:00:00 0 7226 24.18 22.55 25.37 47.62 12 11.7
2019-10-21 15:00:00 0 7226 26.25 24.78 27.34 42.04 12 11.4
2019-10-21 16:00:00 0 7216 26.43 25.74 27.3 40.04 11.5 10.9
2019-10-21 17:00:00 0 7050 25.5 24.73 26.49 43.71 12 11.5
2019-10-21 18:00:00 0 6922 22.35 19.86 24.38 59.27 13.7 12.9
2019-10-21 19:00:00 0 6904 16.89 14.88 19.46 82.76 13.7 12.5
2019-10-21 20:00:00 0 6894 14.29 12.76 15.21 98.64 14 12.7
2019-10-21 21:00:00 0 6904 12.78 11.65 14.74 100 12.7 11.6